Time;durP1;ratioP1;P1;durP2;ratioP2;P2;SDS_P1;SDS_P2;PMS_P1;PMS_P2;Temp;Humidity;BMP_temperature;BMP_pressure;BME280_temperature;BME280_humidity;BME280_pressure;Samples;Min_cycle;Max_cycle;Signal;HPM_P1;HPM_P2
2021/11/11 00:00:30;;;;;;;23.40;16.53;;;4.30;99.90;;;;;;5020652;28;20494;-71
2021/11/11 00:02:57;;;;;;;21.80;16.93;;;4.30;99.90;;;;;;4995637;28;20417;-71
2021/11/11 00:05:24;;;;;;;17.60;14.73;;;4.30;99.90;;;;;;5003306;28;20429;-72
2021/11/11 00:07:50;;;;;;;17.77;15.43;;;4.20;99.90;;;;;;5034953;28;20420;-71
2021/11/11 00:10:17;;;;;;;18.47;14.77;;;4.20;99.90;;;;;;5026481;28;20421;-71
2021/11/11 00:12:44;;;;;;;20.00;15.83;;;4.20;99.90;;;;;;5015317;28;20390;-71
2021/11/11 00:15:12;;;;;;;18.30;13.63;;;4.20;99.90;;;;;;5015444;28;20455;-71
2021/11/11 00:17:38;;;;;;;18.10;14.30;;;4.20;99.90;;;;;;5014840;28;20396;-72
2021/11/11 00:20:06;;;;;;;21.33;16.03;;;4.10;99.90;;;;;;4999623;28;20515;-71
2021/11/11 00:22:33;;;;;;;20.53;15.40;;;4.10;99.90;;;;;;5015574;28;20439;-72
2021/11/11 00:24:58;;;;;;;18.20;14.60;;;4.10;99.90;;;;;;5017385;28;20435;-71
2021/11/11 00:27:24;;;;;;;15.77;14.03;;;4.10;99.90;;;;;;5033513;28;20868;-71
2021/11/11 00:29:50;;;;;;;19.90;16.57;;;4.00;99.90;;;;;;5018838;28;20616;-72
2021/11/11 00:32:16;;;;;;;19.03;15.70;;;4.00;99.90;;;;;;5023914;28;20169;-72
2021/11/11 00:34:43;;;;;;;17.70;14.70;;;4.00;99.90;;;;;;5022474;28;20412;-72
2021/11/11 00:37:08;;;;;;;21.57;14.90;;;4.00;99.90;;;;;;5014840;28;20180;-72
2021/11/11 00:39:34;;;;;;;18.73;14.10;;;3.90;99.90;;;;;;5014990;28;20828;-73
2021/11/11 00:41:59;;;;;;;19.77;15.77;;;3.90;99.90;;;;;;5014711;28;20589;-72
2021/11/11 00:44:25;;;;;;;16.80;14.43;;;3.90;99.90;;;;;;5014757;28;20165;-72
2021/11/11 00:46:51;;;;;;;16.47;14.40;;;3.90;99.90;;;;;;5033128;28;20176;-72
2021/11/11 00:49:16;;;;;;;20.07;14.43;;;3.80;99.90;;;;;;5034250;28;20172;-72
2021/11/11 00:51:43;;;;;;;23.33;16.50;;;3.80;99.90;;;;;;5031968;28;20184;-72
2021/11/11 00:54:09;;;;;;;20.07;15.17;;;3.80;99.90;;;;;;4995579;28;20170;-72
2021/11/11 00:56:35;;;;;;;17.90;15.43;;;3.80;99.90;;;;;;5026980;28;20451;-72
2021/11/11 00:59:00;;;;;;;18.67;16.03;;;3.80;99.90;;;;;;5034156;28;20452;-72
2021/11/11 01:01:29;;;;;;;18.07;14.47;;;3.80;99.90;;;;;;5016399;28;20458;-72
2021/11/11 01:03:56;;;;;;;16.30;14.30;;;3.80;99.90;;;;;;5014431;28;20181;-71
2021/11/11 01:06:22;;;;;;;20.20;14.50;;;3.80;99.90;;;;;;5028594;28;20415;-71
2021/11/11 01:08:48;;;;;;;19.03;14.67;;;3.70;99.90;;;;;;5031791;28;20768;-71
2021/11/11 01:11:16;;;;;;;21.00;15.20;;;3.70;99.90;;;;;;5014210;28;20393;-71
2021/11/11 01:13:42;;;;;;;17.40;14.57;;;3.70;99.90;;;;;;5014030;28;20400;-71
2021/11/11 01:16:07;;;;;;;16.97;13.40;;;3.70;99.90;;;;;;5024823;28;20991;-71
2021/11/11 01:18:33;;;;;;;19.07;14.10;;;3.70;99.90;;;;;;5033653;28;20633;-72
2021/11/11 01:20:59;;;;;;;19.10;15.77;;;3.70;99.90;;;;;;5033809;28;20163;-72
2021/11/11 01:23:25;;;;;;;20.00;15.23;;;3.70;99.90;;;;;;5033609;28;20157;-72
2021/11/11 01:25:50;;;;;;;17.93;15.50;;;3.70;99.90;;;;;;5025190;28;20796;-72
2021/11/11 01:28:16;;;;;;;20.70;14.90;;;3.70;99.90;;;;;;5003888;28;20726;-72
2021/11/11 01:30:44;;;;;;;19.53;15.03;;;3.70;99.90;;;;;;5022786;28;20183;-72
2021/11/11 01:33:11;;;;;;;16.87;14.13;;;3.60;99.90;;;;;;5026357;28;20608;-72
2021/11/11 01:35:37;;;;;;;21.03;16.10;;;3.60;99.90;;;;;;5018284;28;20458;-72
2021/11/11 01:38:03;;;;;;;18.97;16.00;;;3.60;99.90;;;;;;5033359;28;20945;-72
2021/11/11 01:40:29;;;;;;;18.30;16.40;;;3.60;99.90;;;;;;5033227;28;20921;-70
2021/11/11 01:42:57;;;;;;;20.50;16.67;;;3.50;99.90;;;;;;5027664;28;20447;-70
2021/11/11 01:45:26;;;;;;;17.33;15.30;;;3.60;99.90;;;;;;5000559;28;20423;-71
2021/11/11 01:47:52;;;;;;;22.17;16.30;;;3.50;99.90;;;;;;5024038;28;20431;-70
2021/11/11 01:50:17;;;;;;;23.73;15.87;;;3.50;99.90;;;;;;5032290;28;20434;-71
2021/11/11 01:52:43;;;;;;;22.27;14.87;;;3.50;99.90;;;;;;5033294;28;20411;-70
2021/11/11 01:55:10;;;;;;;17.30;14.87;;;3.50;99.90;;;;;;5024847;28;20208;-70
2021/11/11 01:57:35;;;;;;;16.40;13.57;;;3.50;99.90;;;;;;5013090;28;20158;-70
2021/11/11 02:00:05;;;;;;;19.37;13.77;;;3.50;99.90;;;;;;5014092;28;20428;-70
2021/11/11 02:02:30;;;;;;;17.30;13.50;;;3.40;99.90;;;;;;5031909;28;20624;-71
2021/11/11 02:04:56;;;;;;;17.63;14.20;;;3.40;99.90;;;;;;5032293;28;20418;-71
2021/11/11 02:07:22;;;;;;;16.73;13.90;;;3.40;99.90;;;;;;5032837;28;20187;-71
2021/11/11 02:09:48;;;;;;;15.80;14.03;;;3.40;99.90;;;;;;5032439;28;20357;-71
2021/11/11 02:12:14;;;;;;;16.07;13.90;;;3.40;99.90;;;;;;5033014;28;20160;-70
2021/11/11 02:14:40;;;;;;;16.93;15.13;;;3.40;99.90;;;;;;5032402;28;20399;-71
2021/11/11 02:17:06;;;;;;;20.20;15.50;;;3.30;99.90;;;;;;5023422;28;20555;-70
2021/11/11 02:19:32;;;;;;;17.03;14.13;;;3.30;99.90;;;;;;4993276;28;20961;-70
2021/11/11 02:21:57;;;;;;;17.30;14.67;;;3.30;99.90;;;;;;5012715;28;20577;-71
2021/11/11 02:24:23;;;;;;;19.83;14.20;;;3.30;99.90;;;;;;5012590;28;20162;-70
2021/11/11 02:26:50;;;;;;;15.83;14.07;;;3.30;99.90;;;;;;5029304;28;20447;-70
2021/11/11 02:29:17;;;;;;;15.50;13.90;;;3.30;99.90;;;;;;5013707;28;20190;-70
2021/11/11 02:31:42;;;;;;;22.23;15.50;;;3.30;99.90;;;;;;5016026;28;20419;-71
2021/11/11 02:34:08;;;;;;;18.80;14.87;;;3.30;99.90;;;;;;4998197;28;20442;-71
2021/11/11 02:36:34;;;;;;;15.17;13.20;;;3.30;99.90;;;;;;5026883;28;20197;-71
2021/11/11 02:39:00;;;;;;;18.50;15.60;;;3.30;99.90;;;;;;5028229;28;20529;-71
2021/11/11 02:41:26;;;;;;;18.13;14.03;;;3.20;99.90;;;;;;5012601;28;20196;-70
2021/11/11 02:43:51;;;;;;;16.47;13.50;;;3.20;99.90;;;;;;5012876;28;20400;-70
2021/11/11 02:46:17;;;;;;;16.20;14.20;;;3.20;99.90;;;;;;5012687;28;20175;-71
2021/11/11 02:48:43;;;;;;;18.40;13.67;;;3.20;99.90;;;;;;5012457;28;20157;-71
2021/11/11 02:51:09;;;;;;;16.67;14.87;;;3.20;99.90;;;;;;5011035;28;20547;-71
2021/11/11 02:53:39;;;;;;;19.43;15.87;;;3.20;99.90;;;;;;5012382;28;20169;-71
2021/11/11 02:56:04;;;;;;;16.80;13.37;;;3.20;99.90;;;;;;5012415;28;20455;-71
2021/11/11 02:58:30;;;;;;;16.67;14.93;;;3.20;99.90;;;;;;5011958;28;20499;-71
2021/11/11 03:01:00;;;;;;;18.67;14.63;;;3.10;99.90;;;;;;5024310;28;20703;-71
2021/11/11 03:03:28;;;;;;;16.37;14.77;;;3.10;99.90;;;;;;5032077;28;20180;-69
2021/11/11 03:05:54;;;;;;;16.00;13.30;;;3.10;99.90;;;;;;5020957;28;20451;-66
2021/11/11 03:08:21;;;;;;;17.27;14.53;;;3.10;99.90;;;;;;5006136;28;20556;-66
2021/11/11 03:10:47;;;;;;;16.67;14.90;;;3.10;99.90;;;;;;4992748;28;20451;-67
2021/11/11 03:13:14;;;;;;;18.03;15.90;;;3.10;99.90;;;;;;4994268;28;20412;-69
2021/11/11 03:15:42;;;;;;;22.70;13.80;;;3.10;99.90;;;;;;5012003;28;20471;-69
2021/11/11 03:18:09;;;;;;;19.77;14.57;;;3.10;99.90;;;;;;5012200;28;20396;-68
2021/11/11 03:20:35;;;;;;;19.57;15.50;;;3.10;99.90;;;;;;5015497;28;20927;-68
2021/11/11 03:23:02;;;;;;;16.80;15.03;;;3.10;99.90;;;;;;5014150;28;20444;-68
2021/11/11 03:25:30;;;;;;;17.83;14.20;;;3.10;99.90;;;;;;5018108;28;20414;-68
2021/11/11 03:27:56;;;;;;;19.07;14.77;;;3.00;99.90;;;;;;5022908;28;20420;-68
2021/11/11 03:30:23;;;;;;;20.10;15.53;;;3.10;99.90;;;;;;5020259;28;20459;-68
2021/11/11 03:32:49;;;;;;;17.20;14.60;;;3.10;99.90;;;;;;5031870;28;20895;-67
2021/11/11 03:35:15;;;;;;;20.70;15.43;;;3.10;99.90;;;;;;5031131;28;20451;-67
2021/11/11 03:37:42;;;;;;;16.60;14.10;;;3.00;99.90;;;;;;5027678;28;20420;-67
2021/11/11 03:40:15;;;;;;;19.67;15.70;;;3.10;99.90;;;;;;5025049;28;20616;-67
2021/11/11 03:42:42;;;;;;;20.23;16.60;;;3.10;99.90;;;;;;5006891;28;20413;-68
2021/11/11 03:45:09;;;;;;;23.73;16.17;;;3.00;99.90;;;;;;5005356;28;20416;-68
2021/11/11 03:47:35;;;;;;;18.30;14.47;;;3.00;99.90;;;;;;5016014;28;20824;-71
2021/11/11 03:50:01;;;;;;;18.87;14.67;;;3.00;99.90;;;;;;5015968;28;20495;-71
2021/11/11 03:52:26;;;;;;;20.87;15.77;;;3.00;99.90;;;;;;5016098;28;20622;-71
2021/11/11 03:54:52;;;;;;;16.93;14.53;;;3.00;99.90;;;;;;5015582;28;20173;-71
2021/11/11 03:57:18;;;;;;;19.80;17.20;;;3.10;99.90;;;;;;5015199;28;20777;-71
2021/11/11 03:59:44;;;;;;;15.83;14.13;;;3.10;99.90;;;;;;5013890;28;20446;-72
2021/11/11 04:02:13;;;;;;;17.10;15.27;;;3.10;99.90;;;;;;5033472;28;20168;-71
2021/11/11 04:04:39;;;;;;;17.00;14.73;;;3.00;99.90;;;;;;5034878;28;20149;-72
2021/11/11 04:07:05;;;;;;;20.20;15.20;;;3.00;99.90;;;;;;5035075;28;21037;-71
2021/11/11 04:09:30;;;;;;;16.73;14.80;;;3.00;99.90;;;;;;5034570;28;20254;-71
2021/11/11 04:11:56;;;;;;;20.03;13.77;;;3.00;99.90;;;;;;5016012;28;20169;-71
2021/11/11 04:14:21;;;;;;;16.00;13.80;;;3.00;99.90;;;;;;5015262;28;20189;-71
2021/11/11 04:16:47;;;;;;;15.97;14.27;;;3.00;99.90;;;;;;5007901;28;20215;-71
2021/11/11 04:19:13;;;;;;;18.80;15.03;;;2.90;99.90;;;;;;4995549;28;20591;-71
2021/11/11 04:21:40;;;;;;;21.07;14.83;;;2.90;99.90;;;;;;5012284;28;20908;-71
2021/11/11 04:24:05;;;;;;;18.30;15.60;;;2.90;99.90;;;;;;5015074;28;20238;-71
2021/11/11 04:26:34;;;;;;;19.50;13.50;;;2.90;99.90;;;;;;5030373;28;20509;-71
2021/11/11 04:29:02;;;;;;;17.80;14.70;;;2.90;99.90;;;;;;5015730;28;20188;-70
2021/11/11 04:31:32;;;;;;;17.63;14.40;;;2.90;99.90;;;;;;5014253;28;20423;-70
2021/11/11 04:34:04;;;;;;;21.13;15.20;;;2.80;99.90;;;;;;5003674;28;20416;-71
2021/11/11 05:01:24;;;;;;;19.93;14.93;;;2.70;99.90;;;;;;5049001;28;20846;-71
2021/11/11 05:03:50;;;;;;;21.33;15.80;;;2.70;99.90;;;;;;5049836;28;20489;-71
2021/11/11 05:06:17;;;;;;;18.53;14.80;;;2.70;99.90;;;;;;5048972;28;20390;-71
2021/11/11 05:08:42;;;;;;;21.70;14.80;;;2.70;99.90;;;;;;5055953;28;20457;-71
2021/11/11 05:11:09;;;;;;;20.40;16.90;;;2.70;99.90;;;;;;5058976;28;20472;-71
2021/11/11 05:13:36;;;;;;;17.70;15.67;;;2.70;99.90;;;;;;5061906;28;20454;-71
2021/11/11 05:16:02;;;;;;;17.33;14.70;;;2.70;99.90;;;;;;5049496;28;20436;-72
2021/11/11 05:18:27;;;;;;;15.43;13.83;;;2.70;99.90;;;;;;5058905;28;20487;-71
2021/11/11 05:20:53;;;;;;;15.53;13.47;;;2.70;99.90;;;;;;5057215;28;20430;-72
2021/11/11 05:23:19;;;;;;;19.67;15.07;;;2.70;99.90;;;;;;5048482;28;20164;-71
2021/11/11 05:25:45;;;;;;;16.10;13.43;;;2.70;99.90;;;;;;5048004;28;20187;-71
2021/11/11 05:28:11;;;;;;;17.70;13.60;;;2.70;99.90;;;;;;5048424;28;20184;-71
2021/11/11 05:30:37;;;;;;;17.53;14.50;;;2.70;99.90;;;;;;5046978;28;20425;-72
2021/11/11 05:33:03;;;;;;;18.83;14.60;;;2.70;99.90;;;;;;5048156;28;20536;-71
2021/11/11 05:35:29;;;;;;;17.43;14.27;;;2.70;99.90;;;;;;5048071;28;20565;-71
2021/11/11 05:37:55;;;;;;;19.27;14.70;;;2.70;99.90;;;;;;5048063;28;20200;-71
2021/11/11 05:40:21;;;;;;;18.63;14.77;;;2.70;99.90;;;;;;5047965;28;20175;-71
2021/11/11 05:42:47;;;;;;;17.80;12.90;;;2.70;99.90;;;;;;5047918;28;20441;-71
2021/11/11 05:45:16;;;;;;;19.27;13.97;;;2.70;99.90;;;;;;5048066;28;20409;-71
2021/11/11 05:47:42;;;;;;;20.30;15.33;;;2.70;99.90;;;;;;5046939;28;20517;-71
2021/11/11 05:50:09;;;;;;;19.67;16.00;;;2.70;99.90;;;;;;5047826;28;20827;-71
2021/11/11 05:52:35;;;;;;;18.00;15.80;;;2.70;99.90;;;;;;5047840;28;20502;-71
2021/11/11 05:55:01;;;;;;;22.07;15.17;;;2.70;99.90;;;;;;5047084;28;20541;-71
2021/11/11 05:57:26;;;;;;;18.30;14.33;;;2.70;99.90;;;;;;5048093;28;20175;-71
2021/11/11 05:59:53;;;;;;;20.20;15.70;;;2.70;99.90;;;;;;5043217;28;20303;-71
2021/11/11 06:02:19;;;;;;;19.10;15.83;;;2.70;99.90;;;;;;5030546;28;20184;-72
2021/11/11 06:04:44;;;;;;;20.60;15.63;;;2.70;99.90;;;;;;5033225;28;20431;-72
2021/11/11 06:07:11;;;;;;;22.57;17.27;;;2.70;99.90;;;;;;5024975;28;20444;-70
2021/11/11 06:09:37;;;;;;;19.17;15.10;;;2.70;99.90;;;;;;5022530;28;20207;-71
2021/11/11 06:12:03;;;;;;;16.80;15.00;;;2.70;99.90;;;;;;5031793;28;20619;-71
2021/11/11 06:14:31;;;;;;;20.53;15.80;;;2.70;99.90;;;;;;5024480;28;20435;-71
2021/11/11 06:16:58;;;;;;;18.43;16.03;;;2.70;99.90;;;;;;5029078;28;20779;-71
2021/11/11 06:19:23;;;;;;;19.60;14.70;;;2.70;99.90;;;;;;5031754;28;20799;-71
2021/11/11 06:21:50;;;;;;;17.00;15.03;;;2.70;99.90;;;;;;5032654;28;20430;-71
2021/11/11 06:24:16;;;;;;;19.00;15.30;;;2.70;99.90;;;;;;5032406;28;20565;-72
2021/11/11 06:26:44;;;;;;;18.83;15.47;;;2.80;99.90;;;;;;5037171;28;20430;-71
2021/11/11 06:29:10;;;;;;;21.17;15.93;;;2.80;99.90;;;;;;5036497;28;20529;-73
2021/11/11 06:31:35;;;;;;;20.63;15.70;;;2.70;99.90;;;;;;5025120;28;20948;-71
2021/11/11 06:34:01;;;;;;;19.30;15.60;;;2.70;99.90;;;;;;5031032;28;20264;-71
2021/11/11 06:36:28;;;;;;;17.20;15.40;;;2.70;99.90;;;;;;5033034;28;20175;-71
2021/11/11 06:38:54;;;;;;;18.30;15.27;;;2.70;99.90;;;;;;5032867;28;20434;-71
2021/11/11 06:41:20;;;;;;;17.97;15.90;;;2.80;99.90;;;;;;5031273;28;20517;-71
2021/11/11 06:43:45;;;;;;;20.83;15.57;;;2.80;99.90;;;;;;5032554;28;20515;-72
2021/11/11 06:46:11;;;;;;;23.00;16.60;;;2.80;99.90;;;;;;5031745;28;20960;-71
2021/11/11 06:48:37;;;;;;;17.57;15.67;;;2.80;99.90;;;;;;5031553;28;20283;-71
2021/11/11 06:51:04;;;;;;;18.20;15.87;;;2.80;99.90;;;;;;5029000;28;20189;-71
2021/11/11 06:53:30;;;;;;;19.73;16.73;;;2.80;99.90;;;;;;5033706;28;20518;-71
2021/11/11 06:55:56;;;;;;;19.03;16.63;;;2.90;99.90;;;;;;5032592;28;20868;-71
2021/11/11 06:58:23;;;;;;;24.70;16.97;;;2.90;99.90;;;;;;5032605;28;20169;-73
2021/11/11 07:00:51;;;;;;;23.87;19.10;;;2.90;99.90;;;;;;5028522;28;20451;-70
2021/11/11 07:03:17;;;;;;;22.77;16.40;;;2.90;99.90;;;;;;5035535;28;20955;-70
2021/11/11 07:05:43;;;;;;;25.83;17.50;;;2.90;99.90;;;;;;5034455;28;20436;-70
2021/11/11 07:08:10;;;;;;;23.60;18.37;;;2.90;99.90;;;;;;5033801;28;20470;-70
2021/11/11 07:10:37;;;;;;;25.03;20.30;;;3.00;99.90;;;;;;5035907;28;20849;-70
2021/11/11 07:13:03;;;;;;;22.97;19.07;;;3.00;99.90;;;;;;5032632;28;20450;-70
2021/11/11 07:15:29;;;;;;;26.43;19.60;;;2.90;99.90;;;;;;5031153;28;20475;-71
2021/11/11 07:17:56;;;;;;;25.70;18.30;;;2.90;99.90;;;;;;5033660;28;20423;-70
2021/11/11 07:20:21;;;;;;;21.37;18.43;;;2.90;99.90;;;;;;5027414;28;20823;-70
2021/11/11 07:22:47;;;;;;;24.63;19.57;;;2.90;99.90;;;;;;5032116;28;20518;-71
2021/11/11 07:25:16;;;;;;;24.80;19.63;;;2.90;99.90;;;;;;5035934;28;20215;-72
2021/11/11 07:27:42;;;;;;;19.40;16.83;;;2.90;99.90;;;;;;5030221;28;20172;-71
2021/11/11 07:30:11;;;;;;;20.63;16.57;;;2.90;99.90;;;;;;5029911;28;20462;-71
2021/11/11 07:32:38;;;;;;;25.80;18.77;;;2.90;99.90;;;;;;5033154;28;20454;-71
2021/11/11 07:35:08;;;;;;;21.80;17.30;;;2.90;99.90;;;;;;5029843;28;20458;-71
2021/11/11 07:37:34;;;;;;;19.43;16.57;;;2.90;99.90;;;;;;5030888;28;20420;-71
2021/11/11 07:39:59;;;;;;;27.10;19.93;;;3.00;99.90;;;;;;5029398;28;20438;-71
2021/11/11 07:42:25;;;;;;;22.50;16.67;;;2.90;99.90;;;;;;5030130;28;20198;-71
2021/11/11 07:44:51;;;;;;;21.70;17.43;;;2.90;99.90;;;;;;5028818;28;20186;-71
2021/11/11 07:47:25;;;;;;;25.33;19.30;;;3.00;99.90;;;;;;5031832;28;20415;-71
2021/11/11 07:49:50;;;;;;;21.83;18.20;;;3.00;99.90;;;;;;5030913;28;20567;-71
2021/11/11 07:52:16;;;;;;;24.00;19.27;;;3.10;99.90;;;;;;5031683;28;20411;-71
2021/11/11 07:54:41;;;;;;;18.87;16.47;;;3.10;99.90;;;;;;5020848;28;20176;-72
2021/11/11 07:57:07;;;;;;;23.50;19.40;;;3.20;99.90;;;;;;5031494;28;20277;-72
2021/11/11 07:59:34;;;;;;;20.80;18.30;;;3.20;99.90;;;;;;5030776;28;20196;-72
2021/11/11 08:02:00;;;;;;;23.40;19.53;;;3.30;99.90;;;;;;5031454;28;20258;-72
2021/11/11 08:04:28;;;;;;;22.90;17.97;;;3.30;99.90;;;;;;5025366;28;20956;-72
2021/11/11 08:06:54;;;;;;;25.17;18.77;;;3.30;99.90;;;;;;5051678;28;20183;-72
2021/11/11 08:09:20;;;;;;;23.03;18.50;;;3.30;99.90;;;;;;5041201;28;20463;-72
2021/11/11 08:11:45;;;;;;;25.70;17.90;;;3.30;99.90;;;;;;5030531;28;20226;-72
2021/11/11 08:14:11;;;;;;;25.00;18.57;;;3.40;99.90;;;;;;5029559;28;20176;-73
2021/11/11 08:16:36;;;;;;;25.57;20.90;;;3.40;99.90;;;;;;5031121;28;20677;-72
2021/11/11 08:19:02;;;;;;;26.10;19.13;;;3.40;99.90;;;;;;5029684;28;20173;-72
2021/11/11 08:21:28;;;;;;;24.70;17.70;;;3.40;99.90;;;;;;5030100;28;20176;-72
2021/11/11 08:23:53;;;;;;;26.60;17.80;;;3.40;99.90;;;;;;5029288;28;20161;-73
2021/11/11 08:26:19;;;;;;;25.70;19.20;;;3.50;99.90;;;;;;5031082;28;20181;-72
2021/11/11 08:28:45;;;;;;;23.83;17.93;;;3.50;99.90;;;;;;5028078;28;20251;-72
2021/11/11 08:31:10;;;;;;;25.03;18.37;;;3.50;99.90;;;;;;5029542;28;20778;-72
2021/11/11 08:33:37;;;;;;;26.10;20.90;;;3.50;99.90;;;;;;5029447;28;20668;-72
2021/11/11 08:36:04;;;;;;;21.73;17.33;;;3.60;99.90;;;;;;5030786;28;20172;-72
2021/11/11 08:38:30;;;;;;;21.60;17.60;;;3.60;99.90;;;;;;5030531;28;20419;-72
2021/11/11 08:40:56;;;;;;;23.60;18.60;;;3.70;99.90;;;;;;5030211;28;20435;-70
2021/11/11 08:43:22;;;;;;;26.90;19.10;;;3.70;99.90;;;;;;5028876;28;20181;-72
2021/11/11 08:45:49;;;;;;;23.70;18.80;;;3.80;99.90;;;;;;5030528;28;20499;-70
2021/11/11 08:48:15;;;;;;;22.00;17.10;;;3.80;99.90;;;;;;5029264;28;21070;-71
2021/11/11 08:50:40;;;;;;;21.77;18.73;;;3.90;99.90;;;;;;5030286;28;21054;-71
2021/11/11 08:53:08;;;;;;;23.43;18.00;;;3.90;99.90;;;;;;5030221;28;20490;-71
2021/11/11 08:55:34;;;;;;;26.07;19.00;;;4.00;99.90;;;;;;5028924;28;20179;-71
2021/11/11 08:58:03;;;;;;;21.97;17.47;;;4.00;99.90;;;;;;5029699;28;20498;-71
2021/11/11 09:00:33;;;;;;;25.43;20.37;;;4.00;99.90;;;;;;5028744;28;20441;-71
2021/11/11 09:03:00;;;;;;;24.17;19.70;;;4.10;99.90;;;;;;5029827;28;20419;-71
2021/11/11 09:05:31;;;;;;;26.20;20.20;;;4.10;99.90;;;;;;5029743;28;20438;-71
2021/11/11 09:07:58;;;;;;;22.60;19.00;;;4.20;99.90;;;;;;5039809;28;21256;-71
2021/11/11 09:10:24;;;;;;;23.73;18.93;;;4.20;99.90;;;;;;5030054;28;20443;-71
2021/11/11 09:12:52;;;;;;;24.67;20.27;;;4.30;99.90;;;;;;5031747;28;20948;-71
2021/11/11 09:15:22;;;;;;;25.10;20.17;;;4.40;99.90;;;;;;5031118;28;20530;-71
2021/11/11 09:17:50;;;;;;;23.87;21.00;;;4.50;99.90;;;;;;5025385;28;20431;-71
2021/11/11 09:20:18;;;;;;;25.27;20.33;;;4.50;99.90;;;;;;5030531;28;20466;-71
2021/11/11 09:22:44;;;;;;;29.73;20.87;;;4.60;99.90;;;;;;5029194;28;21026;-71
2021/11/11 09:25:10;;;;;;;27.00;19.77;;;4.60;99.90;;;;;;5026816;28;20427;-71
2021/11/11 09:27:37;;;;;;;27.00;19.83;;;4.70;99.90;;;;;;5040785;28;20471;-71
2021/11/11 09:30:09;;;;;;;23.77;19.00;;;4.70;99.90;;;;;;5030435;28;21019;-71
2021/11/11 09:32:35;;;;;;;27.27;20.97;;;4.80;99.90;;;;;;5026264;28;20434;-71
2021/11/11 09:35:02;;;;;;;24.80;19.93;;;4.90;99.90;;;;;;5028773;28;20415;-71
2021/11/11 09:37:28;;;;;;;25.77;20.63;;;5.00;99.90;;;;;;5033877;28;20171;-71
2021/11/11 09:39:53;;;;;;;31.70;20.13;;;5.00;99.90;;;;;;5033395;28;20790;-70
2021/11/11 09:42:20;;;;;;;22.90;19.27;;;5.10;99.90;;;;;;5034812;28;20558;-71
2021/11/11 09:44:46;;;;;;;26.13;21.17;;;5.10;99.90;;;;;;5034569;28;20605;-70
2021/11/11 09:47:12;;;;;;;25.70;20.53;;;5.20;99.90;;;;;;5035254;28;20826;-70
2021/11/11 09:49:37;;;;;;;24.40;19.90;;;5.30;99.90;;;;;;5038592;28;20458;-71
2021/11/11 09:52:03;;;;;;;30.30;22.07;;;5.40;99.90;;;;;;5033398;28;20183;-71
2021/11/11 09:59:55;;;;;;;22.47;20.03;;;5.50;99.90;;;;;;5118226;27;20479;-71
2021/11/11 10:02:21;;;;;;;24.67;20.93;;;5.60;99.90;;;;;;5102414;28;20918;-71
2021/11/11 10:04:47;;;;;;;29.90;23.17;;;5.60;99.90;;;;;;5088247;28;20417;-71
2021/11/11 10:07:13;;;;;;;26.67;23.60;;;5.70;99.90;;;;;;5092233;28;20504;-71
2021/11/11 10:09:41;;;;;;;33.77;23.90;;;5.70;99.90;;;;;;5098649;28;20424;-71
2021/11/11 10:12:16;;;;;;;29.30;25.00;;;5.80;99.90;;;;;;5089903;28;20634;-71
2021/11/11 10:14:44;;;;;;;32.50;24.53;;;5.80;99.90;;;;;;5094364;28;20985;-71
2021/11/11 10:17:11;;;;;;;27.50;24.40;;;5.90;99.90;;;;;;5101999;27;20472;-71
2021/11/11 10:19:41;;;;;;;25.90;20.90;;;5.90;99.90;;;;;;5107738;28;20761;-70
2021/11/11 10:22:12;;;;;;;27.33;23.00;;;6.00;99.90;;;;;;5099736;28;20436;-71
2021/11/11 10:24:45;;;;;;;25.70;22.33;;;6.00;99.90;;;;;;5090953;28;20424;-71
2021/11/11 10:30:21;;;;;;;30.00;24.23;;;6.20;99.90;;;;;;5121541;27;20520;-72
2021/11/11 10:40:52;;;;;;;33.20;23.67;;;6.20;99.90;;;;;;5107329;27;20597;-72
2021/11/11 10:43:22;;;;;;;30.83;24.83;;;6.40;99.90;;;;;;5089949;28;20416;-72
2021/11/11 10:45:50;;;;;;;31.20;23.13;;;6.40;99.90;;;;;;5091856;28;20427;-72
2021/11/11 10:48:18;;;;;;;31.67;25.50;;;6.50;99.90;;;;;;5081430;28;20416;-72
2021/11/11 10:50:47;;;;;;;27.20;24.43;;;6.50;99.90;;;;;;5081337;28;20510;-72
2021/11/11 10:53:15;;;;;;;30.77;26.43;;;6.50;99.90;;;;;;5068443;28;20419;-72
2021/11/11 10:55:46;;;;;;;32.60;25.20;;;6.60;99.90;;;;;;5066486;28;20427;-72
2021/11/11 11:01:11;;;;;;;28.47;23.90;;;6.60;99.90;;;;;;5052684;28;20521;-71
2021/11/11 11:03:40;;;;;;;30.77;25.47;;;6.70;99.90;;;;;;5046492;28;20487;-71
2021/11/11 11:06:11;;;;;;;30.90;25.17;;;6.80;99.90;;;;;;5030615;28;20703;-71
2021/11/11 11:11:35;;;;;;;31.30;24.40;;;6.80;99.90;;;;;;5093674;27;20543;-71
2021/11/11 11:14:10;;;;;;;33.67;25.27;;;6.90;99.90;;;;;;5083863;28;20431;-71
2021/11/11 11:16:36;;;;;;;30.67;26.73;;;6.90;99.90;;;;;;5084620;28;20530;-71
2021/11/11 11:19:08;;;;;;;32.17;26.13;;;7.00;99.90;;;;;;5086292;28;20932;-71
2021/11/11 11:21:39;;;;;;;30.73;24.93;;;7.00;99.90;;;;;;5087153;28;20439;-71
2021/11/11 11:24:25;;;;;;;31.93;27.03;;;7.00;99.90;;;;;;5083351;28;20480;-71
2021/11/11 11:26:54;;;;;;;37.20;31.10;;;7.10;99.90;;;;;;5083547;28;20430;-71
2021/11/11 11:29:33;;;;;;;44.30;32.60;;;7.20;99.90;;;;;;5087146;28;20455;-71
2021/11/11 11:32:05;;;;;;;39.40;33.20;;;7.20;99.90;;;;;;5084570;28;20973;-72
2021/11/11 11:34:35;;;;;;;39.00;33.97;;;7.20;99.90;;;;;;5083846;28;20428;-71
2021/11/11 11:42:37;;;;;;;35.17;31.37;;;7.40;99.90;;;;;;5059915;28;21074;-71
2021/11/11 11:45:08;;;;;;;34.63;30.07;;;7.40;99.90;;;;;;5038630;28;20420;-71
2021/11/11 11:50:25;;;;;;;38.50;28.13;;;7.40;99.90;;;;;;5061206;28;20532;-72
2021/11/11 11:52:57;;;;;;;33.53;29.07;;;7.40;99.90;;;;;;5058777;28;20475;-72
2021/11/11 11:55:28;;;;;;;33.30;28.17;;;7.50;99.90;;;;;;5057651;28;20431;-72
2021/11/11 11:58:01;;;;;;;30.00;26.80;;;7.50;99.90;;;;;;5049195;28;20816;-71
2021/11/11 12:12:23;;;;;;;34.47;28.93;;;7.60;99.90;;;;;;5056058;28;20430;-71
2021/11/11 12:15:09;;;;;;;32.20;28.10;;;7.60;99.90;;;;;;5045003;28;20915;-72
2021/11/11 12:40:28;;;;;;;35.20;29.20;;;7.70;99.90;;;;;;5107151;28;20420;-71
2021/11/11 12:42:57;;;;;;;32.33;28.27;;;7.80;99.90;;;;;;5109529;28;20439;-71
2021/11/11 12:53:46;;;;;;;33.40;28.10;;;7.90;99.90;;;;;;5065459;28;20524;-71
2021/11/11 12:56:17;;;;;;;32.70;26.47;;;7.90;99.90;;;;;;5047331;28;20430;-71
2021/11/11 12:59:01;;;;;;;33.90;26.83;;;7.90;99.90;;;;;;5045920;28;20786;-71
2021/11/11 13:01:33;;;;;;;29.00;25.03;;;7.90;99.90;;;;;;5039821;28;20518;-71
2021/11/11 13:11:56;;;;;;;33.03;24.13;;;8.00;99.90;;;;;;5033876;28;20618;-71
2021/11/11 13:14:43;;;;;;;30.67;23.20;;;8.00;99.90;;;;;;5030601;28;20503;-71
2021/11/11 13:17:14;;;;;;;32.03;23.60;;;8.00;99.90;;;;;;5036801;28;20447;-71
2021/11/11 13:22:26;;;;;;;27.87;22.23;;;8.10;99.90;;;;;;5060068;28;20528;-71
2021/11/11 13:25:44;;;;;;;29.03;23.13;;;8.10;99.90;;;;;;5033287;28;20916;-71
2021/11/11 13:28:44;;;;;;;27.83;23.77;;;8.10;99.90;;;;;;5034893;28;20411;-71
2021/11/11 15:14:25;;;;;;;33.33;25.37;;;10.00;99.90;;;;;;5062598;28;20426;-71
2021/11/11 16:21:27;;;;;;;40.20;28.93;;;9.80;99.90;;;;;;5046219;28;20469;-71
2021/11/11 16:24:06;;;;;;;39.20;30.10;;;9.70;99.90;;;;;;5048122;28;20938;-71
2021/11/11 16:26:31;;;;;;;33.97;28.13;;;9.70;99.90;;;;;;5046567;28;20400;-71
2021/11/11 16:28:59;;;;;;;37.07;28.87;;;9.70;99.90;;;;;;5047902;28;20510;-71
2021/11/11 16:31:26;;;;;;;37.33;29.07;;;9.70;99.90;;;;;;5047560;28;20521;-71
2021/11/11 16:33:54;;;;;;;36.97;29.10;;;9.70;99.90;;;;;;5047336;28;20842;-71
2021/11/11 16:36:20;;;;;;;39.23;29.80;;;9.70;99.90;;;;;;5047896;28;20481;-71
2021/11/11 16:38:48;;;;;;;34.10;27.80;;;9.70;99.90;;;;;;5048207;28;20469;-71
2021/11/11 16:41:14;;;;;;;34.70;26.90;;;9.70;99.90;;;;;;5048326;28;20402;-71
2021/11/11 16:43:41;;;;;;;35.70;26.77;;;9.70;99.90;;;;;;5048101;28;20769;-72
2021/11/11 16:46:07;;;;;;;37.47;28.63;;;9.70;99.90;;;;;;5047519;28;20415;-71
2021/11/11 16:48:36;;;;;;;36.17;28.80;;;9.70;99.90;;;;;;5048305;28;20405;-71
2021/11/11 16:51:03;;;;;;;38.27;29.20;;;9.70;99.90;;;;;;5047606;28;20431;-71
2021/11/11 16:53:29;;;;;;;32.90;27.40;;;9.60;99.90;;;;;;5047969;28;20491;-71
2021/11/11 16:55:55;;;;;;;41.90;29.80;;;9.70;99.90;;;;;;5047856;28;20427;-71
2021/11/11 16:58:22;;;;;;;33.27;27.20;;;9.70;99.90;;;;;;5048003;28;20400;-71
2021/11/11 17:00:47;;;;;;;34.57;28.60;;;9.70;99.90;;;;;;5037775;28;20277;-71
2021/11/11 17:03:14;;;;;;;33.43;28.43;;;9.60;99.90;;;;;;5038285;28;20542;-71
2021/11/11 17:05:41;;;;;;;33.67;28.07;;;9.70;99.90;;;;;;5044647;28;20194;-72
2021/11/11 17:08:07;;;;;;;34.87;28.27;;;9.70;99.90;;;;;;5047625;28;20523;-72
2021/11/11 17:10:32;;;;;;;36.23;29.37;;;9.70;99.90;;;;;;5047248;28;20514;-72
2021/11/11 17:12:58;;;;;;;35.80;29.03;;;9.70;99.90;;;;;;5047583;28;20169;-72